createdAt,value
2023-09-25T00:00:25.478Z,3
2023-09-25T00:05:24.944Z,2
2023-09-25T00:10:24.967Z,3
2023-09-25T00:15:24.924Z,3
2023-09-25T00:20:25.461Z,3
2023-09-25T00:25:24.964Z,3
2023-09-25T00:30:25.478Z,3
2023-09-25T00:35:24.972Z,3
2023-09-25T00:40:24.971Z,3
2023-09-25T00:45:25.050Z,3
2023-09-25T00:50:25.487Z,4
2023-09-25T00:55:25.119Z,2
2023-09-25T01:00:25.083Z,3
2023-09-25T01:05:25.064Z,4
2023-09-25T01:10:25.560Z,3
2023-09-25T01:15:25.061Z,3
2023-09-25T01:20:25.593Z,3
2023-09-25T01:25:25.091Z,3
2023-09-25T01:45:25.956Z,3
2023-09-25T01:50:25.305Z,3
2023-09-25T01:55:25.135Z,3
2023-09-25T02:00:25.162Z,3
2023-09-25T02:05:25.270Z,4
2023-09-25T02:10:25.666Z,3
2023-09-25T02:15:25.693Z,5
2023-09-25T02:20:25.683Z,3
2023-09-25T02:25:25.156Z,3
2023-09-25T02:35:25.700Z,4
2023-09-25T02:40:25.186Z,4
2023-09-25T02:45:25.532Z,4
2023-09-25T02:50:25.211Z,4
2023-09-25T02:55:25.227Z,4
2023-09-25T03:00:25.283Z,4
2023-09-25T03:05:25.260Z,3
2023-09-25T03:10:25.272Z,3
2023-09-25T03:15:25.272Z,3
2023-09-25T03:35:26.135Z,3
2023-09-25T03:40:25.449Z,4
2023-09-25T03:45:25.896Z,5
2023-09-25T03:50:25.319Z,4
2023-09-25T03:55:25.357Z,4
2023-09-25T04:00:25.878Z,4
2023-09-25T04:05:25.357Z,5
2023-09-25T04:10:25.389Z,4
2023-09-25T04:15:25.455Z,6
2023-09-25T04:20:26.102Z,4
2023-09-25T04:25:25.904Z,4
2023-09-25T04:30:25.476Z,4
2023-09-25T04:35:25.430Z,9
2023-09-25T04:40:25.443Z,6
2023-09-25T04:45:26.082Z,5
2023-09-25T04:50:25.950Z,5
2023-09-25T04:55:25.958Z,4
2023-09-25T05:00:25.623Z,4
2023-09-25T05:05:26.040Z,4
2023-09-25T05:10:25.993Z,4
2023-09-25T05:15:25.754Z,4
2023-09-25T05:20:25.495Z,5
2023-09-25T05:25:25.522Z,5
2023-09-25T05:35:25.537Z,56
2023-09-25T05:40:25.544Z,16
2023-09-25T05:45:25.727Z,5
2023-09-25T05:50:25.560Z,6
2023-09-25T06:00:25.610Z,6
2023-09-25T06:20:26.424Z,6
2023-09-25T06:25:26.269Z,4
2023-09-25T06:30:26.161Z,6
2023-09-25T06:35:26.201Z,5
2023-09-25T06:40:25.658Z,6
2023-09-25T06:45:25.665Z,10
2023-09-25T06:50:25.656Z,8
2023-09-25T06:55:25.793Z,9
2023-09-25T07:00:25.681Z,10
2023-09-25T07:15:26.580Z,10
2023-09-25T07:20:25.711Z,9
2023-09-25T07:25:25.746Z,8
2023-09-25T07:30:25.756Z,11
2023-09-25T07:35:26.356Z,8
2023-09-25T07:45:25.961Z,7
2023-09-25T07:50:25.785Z,7
2023-09-25T07:55:26.325Z,10
2023-09-25T08:00:26.402Z,11
2023-09-25T08:05:26.360Z,10
2023-09-25T08:10:25.854Z,8
2023-09-25T08:15:25.864Z,8
2023-09-25T08:20:26.337Z,10
2023-09-25T08:35:25.870Z,21
2023-09-25T08:40:27.366Z,19
2023-09-25T08:45:26.455Z,14
2023-09-25T08:50:25.898Z,20
2023-09-25T08:55:25.904Z,20
2023-09-25T09:00:26.466Z,24
2023-09-25T09:05:26.444Z,25
2023-09-25T09:10:26.438Z,26
2023-09-25T09:15:25.977Z,24
2023-09-25T09:20:25.971Z,24
2023-09-25T09:25:25.970Z,30
2023-09-25T09:30:26.142Z,30
2023-09-25T09:35:26.678Z,27
2023-09-25T09:40:26.504Z,29
2023-09-25T09:45:26.016Z,29
2023-09-25T09:50:26.126Z,27
2023-09-25T09:55:26.533Z,28
2023-09-25T10:00:27.073Z,28
2023-09-25T10:10:26.597Z,28
2023-09-25T10:15:26.067Z,28
2023-09-25T10:20:26.078Z,29
2023-09-25T10:25:26.062Z,26
2023-09-25T10:30:26.227Z,12
2023-09-25T10:35:26.098Z,7
2023-09-25T10:40:26.099Z,7
2023-09-25T10:45:26.684Z,7
2023-09-25T11:05:26.204Z,8
2023-09-25T11:20:27.027Z,8
2023-09-25T11:25:26.184Z,11
2023-09-25T11:30:26.722Z,23
2023-09-25T11:35:26.192Z,27
2023-09-25T11:45:26.766Z,8
2023-09-25T11:50:26.362Z,6
2023-09-25T11:55:26.262Z,6
2023-09-25T12:00:26.773Z,6
2023-09-25T12:05:26.265Z,6
2023-09-25T12:10:26.285Z,6
2023-09-25T12:15:26.430Z,6
2023-09-25T12:20:26.805Z,8
2023-09-25T12:25:27.096Z,7
2023-09-25T12:30:26.347Z,7
2023-09-25T12:50:27.190Z,7
2023-09-25T12:55:26.371Z,16
2023-09-25T13:00:26.488Z,10
2023-09-25T13:05:26.431Z,12
2023-09-25T13:10:26.397Z,13
2023-09-25T13:15:26.420Z,21
2023-09-25T13:20:27.074Z,22
2023-09-25T13:25:26.408Z,27
2023-09-25T13:30:26.533Z,29
2023-09-25T13:35:26.441Z,27
2023-09-25T13:40:26.935Z,27
2023-09-25T13:45:26.461Z,28
2023-09-25T13:50:26.452Z,28
2023-09-25T13:55:26.495Z,27
2023-09-25T14:00:27.044Z,28
2023-09-25T14:05:26.583Z,29
2023-09-25T14:10:26.508Z,30
2023-09-25T14:15:26.542Z,29
2023-09-25T14:20:26.552Z,31
2023-09-25T14:25:26.558Z,9
2023-09-25T14:30:26.521Z,4
2023-09-25T14:35:26.966Z,4
2023-09-25T14:40:26.545Z,4
2023-09-25T14:45:26.617Z,4
2023-09-25T14:50:27.215Z,4
2023-09-25T14:55:30.608Z,4
2023-09-25T15:00:26.621Z,4
2023-09-25T15:05:27.123Z,4
2023-09-25T15:10:27.137Z,5
2023-09-25T15:15:26.747Z,5
2023-09-25T15:20:27.211Z,7
2023-09-25T15:25:26.657Z,15
2023-09-25T15:30:26.921Z,24
2023-09-25T15:35:27.240Z,8
2023-09-25T15:40:26.685Z,6
2023-09-25T15:45:26.665Z,5
2023-09-25T15:50:26.698Z,4
2023-09-25T15:55:26.726Z,5
2023-09-25T16:00:27.617Z,5
2023-09-25T16:05:26.742Z,5
2023-09-25T16:15:27.357Z,4
2023-09-25T16:20:26.888Z,4
2023-09-25T16:25:27.312Z,4
2023-09-25T16:30:26.776Z,5
2023-09-25T16:35:26.786Z,5
2023-09-25T16:40:27.385Z,5
2023-09-25T16:45:27.300Z,4
2023-09-25T16:50:27.331Z,5
2023-09-25T16:55:26.859Z,6
2023-09-25T17:15:27.699Z,5
2023-09-25T17:20:26.880Z,5
2023-09-25T17:25:26.895Z,8
2023-09-25T17:30:26.902Z,6
2023-09-25T17:35:26.893Z,7
2023-09-25T17:40:26.920Z,7
2023-09-25T17:45:26.938Z,7
2023-09-25T17:50:26.942Z,8
2023-09-25T17:55:26.931Z,8
2023-09-25T18:00:26.934Z,11
2023-09-25T18:05:29.709Z,13
2023-09-25T18:10:26.963Z,18
2023-09-25T18:30:27.820Z,18
2023-09-25T18:35:27.031Z,27
2023-09-25T18:40:27.523Z,26
2023-09-25T18:45:27.066Z,30
2023-09-25T18:50:27.181Z,28
2023-09-25T18:55:27.059Z,25
2023-09-25T19:00:27.131Z,29
2023-09-25T19:05:27.077Z,27
2023-09-25T19:10:27.099Z,27
2023-09-25T19:15:27.103Z,24
2023-09-25T19:20:27.080Z,28
2023-09-25T19:25:27.632Z,28
2023-09-25T19:30:27.125Z,28
2023-09-25T19:35:27.150Z,29
2023-09-25T19:40:27.269Z,27
2023-09-25T19:45:27.716Z,28
2023-09-25T19:50:27.170Z,29
2023-09-25T19:55:27.680Z,26
2023-09-25T20:00:27.192Z,11
2023-09-25T20:05:27.702Z,15
2023-09-25T20:10:27.705Z,23
2023-09-25T20:15:27.685Z,12
2023-09-25T20:20:27.214Z,9
2023-09-25T20:25:27.334Z,9
2023-09-25T20:30:27.221Z,8
2023-09-25T20:35:27.488Z,8
2023-09-25T20:40:27.794Z,7
2023-09-25T21:05:28.125Z,7
2023-09-25T21:10:27.311Z,21
2023-09-25T21:15:27.356Z,22
2023-09-25T21:20:27.374Z,22
2023-09-25T21:25:27.537Z,11
2023-09-25T21:30:27.482Z,19
2023-09-25T21:35:27.863Z,13
2023-09-25T21:40:27.416Z,20
2023-09-25T21:45:27.882Z,23
2023-09-25T21:50:27.445Z,24
2023-09-25T21:55:27.941Z,27
2023-09-25T22:00:27.481Z,24
2023-09-25T22:05:27.918Z,25
2023-09-25T22:10:27.604Z,26
2023-09-25T22:15:28.160Z,25
2023-09-25T22:20:27.436Z,27
2023-09-25T22:25:27.461Z,27
2023-09-25T22:30:27.472Z,28
2023-09-25T22:35:27.981Z,27
2023-09-25T22:40:29.296Z,27
2023-09-25T22:45:27.493Z,26
2023-09-25T22:50:27.504Z,27
2023-09-25T22:55:27.509Z,29
2023-09-25T23:00:27.747Z,30
2023-09-25T23:05:28.064Z,29
2023-09-25T23:10:28.032Z,31
2023-09-25T23:15:27.551Z,29
2023-09-25T23:20:28.064Z,29
2023-09-25T23:25:28.499Z,27
2023-09-25T23:30:27.580Z,28
2023-09-25T23:35:28.070Z,26
